Data for 12/05/2008

Time Sea-Level Adjusted Pressure Absolute Pressure Temperature Relative Humidity Dew Point   
(mb) (inHg) (mb) (inHg) (C) (F) (%) (C) (F)
00:05 1024 30.24 853 25.19 -11.8 10.7 78 -15 5.1
00:10 1023 30.21 853 25.19 -11.8 10.8 78 -14.9 5.2
00:15 1023 30.21 852 25.16 -11.5 11.3 76 -14.9 5.2
00:20 1023 30.21 852 25.16 -11.1 12 75 -14.7 5.5
00:25 1023 30.21 852 25.16 -11 12.2 76 -14.5 5.9
00:30 1023 30.21 852 25.16 -10.8 12.6 74 -14.6 5.8
00:35 1023 30.21 852 25.16 -10.5 13.2 72 -14.6 5.7
00:40 1023 30.21 852 25.16 -10.3 13.5 72 -14.4 6.1
00:45 1023 30.21 852 25.16 -10.3 13.4 73 -14.3 6.2
00:50 1023 30.21 852 25.16 -10.3 13.4 72 -14.5 5.9
00:55 1023 30.21 852 25.16 -10 14 71 -14.3 6.2
01:00 1023 30.21 852 25.16 -9.9 14.2 71 -14.1 6.5
01:05 1023 30.21 852 25.16 -9.6 14.7 69 -14.2 6.4
01:10 1023 30.21 852 25.16 -9.6 14.7 71 -13.9 6.9
01:15 1023 30.21 852 25.16 -9.9 14.2 73 -13.8 7.2
01:20 1022 30.18 852 25.16 -10.2 13.7 73 -14.1 6.6
01:25 1023 30.21 852 25.16 -10.1 13.8 75 -13.8 7.2
01:30 1022 30.18 852 25.16 -10.2 13.7 77 -13.5 7.7
01:35 1022 30.18 852 25.16 -10.2 13.7 78 -13.3 8
01:40 1022 30.18 852 25.16 -10.3 13.5 78 -13.4 7.9
01:45 1022 30.18 852 25.16 -10.2 13.7 77 -13.5 7.7
01:50 1022 30.18 852 25.16 -10 13.9 75 -13.7 7.3
01:55 1022 30.18 851 25.13 -9.8 14.3 74 -13.6 7.5
02:00 1022 30.18 851 25.13 -9.5 14.8 74 -13.4 7.9
02:05 1022 30.18 851 25.13 -9.5 14.9 69 -14.2 6.4
02:10 1022 30.18 851 25.13 -9.2 15.5 68 -14 6.7
02:15 1022 30.18 851 25.13 -9.1 15.7 67 -14.2 6.5
02:20 1022 30.18 851 25.13 -8.8 16.1 65 -14.2 6.4
02:25 1022 30.18 851 25.13 -8.7 16.3 67 -13.7 7.3
02:30 1022 30.18 851 25.13 -8.7 16.3 65 -14.3 6.3
02:35 1022 30.18 851 25.13 -8.6 16.6 65 -14 6.8
02:40 1022 30.18 851 25.13 -8.4 16.8 63 -14.3 6.2
02:45 1022 30.18 851 25.13 -8.3 17 60 -14.9 5.2
02:50 1022 30.18 851 25.13 -8.2 17.2 65 -13.6 7.5
02:55 1022 30.18 851 25.13 -8.3 17.1 68 -13.1 8.3
03:00 1022 30.18 851 25.13 -8.4 16.9 70 -13 8.6
03:05 1022 30.18 851 25.13 -8.6 16.5 73 -12.6 9.4
03:10 1022 30.18 851 25.13 -8.8 16.1 73 -12.9 8.8
03:15 1021 30.15 851 25.13 -8.9 15.9 70 -13.5 7.8
03:20 1021 30.15 850 25.1 -8.8 16.2 69 -13.5 7.7
03:25 1021 30.15 851 25.13 -8.7 16.3 70 -13.2 8.3
03:30 1021 30.15 850 25.1 -8.6 16.6 66 -13.9 6.9
03:35 1021 30.15 850 25.1 -8.2 17.2 64 -13.9 7
03:40 1021 30.15 850 25.1 -7.9 17.8 63 -13.7 7.3
03:45 1021 30.15 850 25.1 -7.7 18.2 63 -13.5 7.6
03:50 1021 30.15 850 25.1 -7.5 18.5 64 -13.1 8.3
03:55 1021 30.15 850 25.1 -7.5 18.5 62 -13.6 7.4
04:00 1021 30.15 850 25.1 -7.4 18.7 60 -13.9 7
04:05 1021 30.15 850 25.1 -7.2 19 68 -12.2 10.1
04:10 1021 30.15 850 25.1 -7.2 19.1 67 -12.3 9.9
04:15 1021 30.15 850 25.1 -7.1 19.3 67 -12.3 9.9
04:20 1021 30.15 851 25.13 -6.9 19.6 67 -12 10.4
04:25 1021 30.15 851 25.13 -6.8 19.7 62 -12.9 8.7
04:30 1021 30.15 851 25.13 -6.8 19.7 65 -12.4 9.7
04:35 1021 30.15 851 25.13 -6.9 19.7 64 -12.6 9.2
04:40 1021 30.15 850 25.1 -6.8 19.8 65 -12.2 10
04:45 1021 30.15 850 25.1 -6.6 20.1 63 -12.6 9.3
04:50 1021 30.15 850 25.1 -6.3 20.6 63 -12.3 9.8
04:55 1021 30.15 850 25.1 -6.1 21 62 -12.2 10.1
05:00 1021 30.15 850 25.1 -5.9 21.3 64 -11.7 11
05:05 1021 30.15 850 25.1 -6 21.2 66 -11.4 11.5
05:10 1021 30.15 850 25.1 -6 21.2 65 -11.5 11.3
05:15 1021 30.15 850 25.1 -5.9 21.4 66 -11.2 11.8
05:20 1021 30.15 850 25.1 -5.8 21.6 66 -11.2 11.8
05:25 1021 30.15 851 25.13 -5.8 21.6 65 -11.3 11.6
05:30 1021 30.15 851 25.13 -5.8 21.5 65 -11.4 11.6
05:35 1021 30.15 850 25.1 -5.9 21.4 65 -11.4 11.4
05:40 1021 30.15 850 25.1 -5.9 21.3 65 -11.6 11.2
05:45 1021 30.15 850 25.1 -5.9 21.4 65 -11.5 11.3
05:50 1021 30.15 850 25.1 -5.9 21.4 67 -11.2 11.9
05:55 1021 30.15 850 25.1 -5.9 21.4 66 -11.2 11.8
06:00 1021 30.15 850 25.1 -6 21.2 67 -11.1 12
06:05 1021 30.15 850 25.1 -6 21.3 67 -11.2 11.8
06:10 1021 30.15 850 25.1 -6 21.1 69 -10.9 12.3
06:15 1021 30.15 850 25.1 -6.1 21.1 69 -10.9 12.4
06:20 1021 30.15 850 25.1 -6.1 21 70 -10.8 12.6
06:25 1021 30.15 850 25.1 -6.1 21.1 72 -10.3 13.4
06:30 1021 30.15 850 25.1 -6 21.2 69 -10.8 12.6
06:35 1021 30.15 850 25.1 -5.9 21.3 71 -10.5 13.2
06:40 1021 30.15 850 25.1 -5.9 21.4 65 -11.4 11.5
06:45 1021 30.15 850 25.1 -5.9 21.5 67 -11.1 12
06:50 1020 30.12 850 25.1 -5.8 21.5 67 -11 12.1
06:55 1020 30.12 850 25.1 -5.5 22.2 68 -10.5 13
07:00 1020 30.12 850 25.1 -5.5 22 74 -9.5 14.8
07:05 1020 30.12 850 25.1 -5.8 21.6 75 -9.6 14.8
07:10 1020 30.12 850 25.1 -5.9 21.3 74 -9.8 14.3
07:15 1021 30.15 850 25.1 -5.8 21.6 74 -9.7 14.5
07:20 1020 30.12 850 25.1 -5.6 22 72 -9.9 14.2
07:25 1020 30.12 850 25.1 -5.3 22.5 71 -9.8 14.4
07:30 1021 30.15 850 25.1 -5.1 22.9 74 -9 15.9
07:35 1021 30.15 850 25.1 -5 23 72 -9.3 15.2
07:40 1021 30.15 850 25.1 -5 23 63 -11.1 12
07:45 1021 30.15 850 25.1 -4.8 23.4 59 -11.7 10.9
07:50 1021 30.15 850 25.1 -4.7 23.5 60 -11.3 11.7
07:55 1021 30.15 850 25.1 -4.8 23.3 62 -11 12.2
08:00 1021 30.15 850 25.1 -5 23 63 -10.9 12.4
08:05 1021 30.15 850 25.1 -5.2 22.7 67 -10.5 13.2
08:10 1021 30.15 851 25.13 -5.4 22.3 66 -10.8 12.6
08:15 1021 30.15 851 25.13 -5.4 22.2 66 -10.9 12.3
08:20 1021 30.15 851 25.13 -5.3 22.5 59 -12 10.3
08:25 1022 30.18 851 25.13 -5 23 53 -13.1 8.5
08:30 1022 30.18 851 25.13 -4.8 23.4 54 -12.7 9.1
08:35 1022 30.18 851 25.13 -4.6 23.8 52 -13 8.5
08:40 1022 30.18 851 25.13 -4.5 24 53 -12.6 9.3
08:45 1022 30.18 851 25.13 -4.3 24.3 54 -12.3 9.8
08:50 1022 30.18 851 25.13 -4 24.8 51 -12.8 8.9
08:55 1022 30.18 851 25.13 -3.8 25.1 49 -13 8.6
09:00 1022 30.18 851 25.13 -3.5 25.7 49 -12.6 9.3
09:05 1022 30.18 851 25.13 -3.5 25.7 50 -12.6 9.3
09:10 1022 30.18 851 25.13 -3.6 25.5 49 -12.7 9.1
09:15 1022 30.18 851 25.13 -3.5 25.8 46 -13.5 7.7
09:20 1022 30.18 851 25.13 -3.2 26.2 47 -13.1 8.4
09:25 1022 30.18 851 25.13 -3.3 26.1 47 -13.1 8.5
09:30 1022 30.18 851 25.13 -3.3 26 48 -12.8 9
09:35 1022 30.18 851 25.13 -3.1 26.4 51 -12 10.4
09:40 1022 30.18 851 25.13 -3.4 25.9 53 -11.8 10.8
09:45 1021 30.15 850 25.1 -3.7 25.4 53 -11.9 10.6
09:50 1021 30.15 850 25.1 -3.4 25.9 51 -12.1 10.3
09:55 1021 30.15 850 25.1 -2.9 26.7 54 -11.1 12
10:00 1021 30.15 850 25.1 -2.5 27.5 56 -10.1 13.8
10:05 1021 30.15 850 25.1 -2.2 28.1 58 -9.4 15.1
10:10 1021 30.15 850 25.1 -1.8 28.7 60 -8.6 16.6
10:15 1021 30.15 850 25.1 -1.9 28.5 62 -8.4 17
10:20 1021 30.15 850 25.1 -2.2 28.1 63 -8.3 17
10:25 1021 30.15 850 25.1 -1.8 28.7 62 -8.2 17.3
10:30 1021 30.15 850 25.1 -1.4 29.4 61 -7.9 17.7
10:35 1021 30.15 850 25.1 -1.3 29.6 62 -7.8 18
10:40 1021 30.15 850 25.1 -1.1 30 65 -7 19.5
10:45 1021 30.15 850 25.1 -0.8 30.6 62 -7.1 19.2
10:50 1021 30.15 851 25.13 -0.5 31.1 62 -6.9 19.6
10:55 1021 30.15 851 25.13 -0.9 30.5 66 -6.5 20.3
11:00 1021 30.15 851 25.13 -1.1 30.1 68 -6.2 20.9
11:05 1022 30.18 851 25.13 -1.1 29.9 67 -6.6 20.1
11:10 1022 30.18 851 25.13 -1.2 29.9 68 -6.4 20.5
11:15 1022 30.18 851 25.13 -0.9 30.3 67 -6.2 20.8
11:20 1022 30.18 851 25.13 -0.7 30.8 67 -6 21.2
11:25 1022 30.18 851 25.13 -0.3 31.4 67 -5.8 21.6
11:30 1021 30.15 851 25.13 -0.1 31.8 66 -5.7 21.8
11:35 1021 30.15 851 25.13 0 32.1 63 -6.2 20.8
11:40 1021 30.15 850 25.1 -0.6 30.9 67 -6 21.2
11:45 1021 30.15 850 25.1 -0.6 30.9 66 -6.3 20.7
11:50 1021 30.15 850 25.1 -0.2 31.6 68 -5.4 22.3
11:55 1021 30.15 850 25.1 0 32 67 -5.4 22.3
12:00 1021 30.15 850 25.1 0.4 32.8 66 -5.2 22.7
12:05 1021 30.15 850 25.1 0.6 33.1 66 -5 22.9
12:10 1021 30.15 850 25.1 1 33.7 64 -5.1 22.7
12:15 1021 30.15 850 25.1 1 33.8 65 -4.9 23.2
12:20 1021 30.15 850 25.1 0.9 33.6 61 -5.7 21.7
12:25 1021 30.15 850 25.1 1.1 34 61 -5.5 22
12:30 1021 30.15 850 25.1 1.3 34.4 59 -5.7 21.7
12:35 1021 30.15 850 25.1 1.4 34.5 59 -5.9 21.4
12:40 1021 30.15 850 25.1 1.4 34.5 59 -5.8 21.6
12:45 1021 30.15 850 25.1 1.4 34.5 58 -6.1 21.1
12:50 1021 30.15 850 25.1 1.4 34.6 57 -6.1 21
12:55 1021 30.15 850 25.1 1.5 34.6 56 -6.4 20.5
13:00 1021 30.15 850 25.1 1.5 34.7 54 -6.9 19.6
13:05 1020 30.12 850 25.1 1.7 35.1 52 -7.2 19.1
13:10 1020 30.12 850 25.1 2 35.5 51 -7.2 19
13:15 1020 30.12 850 25.1 2.1 35.8 51 -7.1 19.3
13:20 1020 30.12 850 25.1 2.4 36.4 49 -7.1 19.2
13:25 1020 30.12 850 25.1 2.6 36.6 54 -5.8 21.6
13:30 1020 30.12 850 25.1 2.3 36.1 62 -4.3 24.3
13:35 1020 30.12 850 25.1 1.3 34.3 64 -4.8 23.4
13:40 1020 30.12 850 25.1 1.4 34.5 65 -4.6 23.7
13:45 1020 30.12 850 25.1 1.3 34.3 62 -5.1 22.8
13:50 1020 30.12 850 25.1 1.2 34.2 63 -5.2 22.7
13:55 1020 30.12 850 25.1 1.3 34.4 60 -5.6 22
14:00 1020 30.12 850 25.1 1.1 34 60 -5.9 21.4
14:05 1020 30.12 849 25.07 1.2 34.1 56 -6.7 19.9
14:10 1020 30.12 849 25.07 1.3 34.3 59 -5.9 21.3
14:15 1020 30.12 849 25.07 1.5 34.8 58 -5.7 21.7
14:20 1020 30.12 849 25.07 1.7 35.1 58 -5.7 21.8
14:25 1020 30.12 849 25.07 1.6 34.9 59 -5.6 22
14:30 1020 30.12 849 25.07 1.6 34.9 58 -5.8 21.6
14:35 1020 30.12 849 25.07 1.6 34.8 61 -5.3 22.5
14:40 1020 30.12 849 25.07 1.5 34.7 59 -5.6 21.9
14:45 1020 30.12 849 25.07 1.4 34.6 59 -5.7 21.7
14:50 1020 30.12 849 25.07 1.5 34.7 60 -5.5 22.1
14:55 1020 30.12 849 25.07 1.3 34.3 59 -5.8 21.6
15:00 1020 30.12 849 25.07 1.3 34.3 57 -6.3 20.7
15:05 1020 30.12 849 25.07 1.3 34.4 59 -5.8 21.5
15:10 1020 30.12 849 25.07 1.2 34.2 61 -5.5 22.1
15:15 1020 30.12 849 25.07 1.3 34.3 61 -5.4 22.3
15:20 1020 30.12 849 25.07 1.3 34.4 61 -5.3 22.4
15:25 1020 30.12 849 25.07 1.2 34.1 66 -4.4 24.1
15:30 1020 30.12 849 25.07 0.9 33.6 65 -5 23.1
15:35 1020 30.12 849 25.07 0.6 33.2 67 -4.9 23.2
15:40 1020 30.12 849 25.07 0.6 33.1 67 -4.7 23.5
15:45 1020 30.12 849 25.07 0.6 33.1 67 -4.8 23.4
15:50 1020 30.12 849 25.07 0.6 33 67 -4.8 23.4
15:55 1020 30.12 849 25.07 0.6 33 68 -4.7 23.6
16:00 1020 30.12 849 25.07 0.5 33 68 -4.7 23.6
16:05 1020 30.12 849 25.07 0.6 33 68 -4.6 23.7
16:10 1020 30.12 849 25.07 0.7 33.2 69 -4.4 24
16:15 1020 30.12 849 25.07 0.8 33.4 66 -4.9 23.3
16:20 1020 30.12 849 25.07 0.7 33.3 65 -5.1 22.8
16:25 1020 30.12 849 25.07 0.7 33.3 66 -4.9 23.2
16:30 1020 30.12 849 25.07 0.7 33.2 67 -4.7 23.6
16:35 1020 30.12 849 25.07 0.6 33.2 66 -4.9 23.2
16:40 1020 30.12 849 25.07 0.8 33.5 66 -4.9 23.3
16:45 1020 30.12 849 25.07 1.1 33.9 67 -4.3 24.3
16:50 1020 30.12 849 25.07 0.9 33.7 72 -3.6 25.5
16:55 1020 30.12 849 25.07 1.1 34 73 -3.3 26.1
17:00 1020 30.12 849 25.07 1.2 34.2 72 -3.3 26
17:05 1020 30.12 849 25.07 1.2 34.1 74 -3 26.6
17:10 1020 30.12 849 25.07 1.1 33.9 75 -2.9 26.7
17:15 1020 30.12 849 25.07 1 33.9 77 -2.6 27.3
17:20 1020 30.12 849 25.07 1.4 34.5 75 -2.6 27.4
17:25 1020 30.12 849 25.07 1.7 35 74 -2.5 27.6
17:30 1020 30.12 849 25.07 1.9 35.5 70 -3 26.6
17:35 1020 30.12 849 25.07 2 35.6 69 -3.1 26.4
17:40 1020 30.12 849 25.07 2.2 35.9 60 -4.8 23.4
17:45 1020 30.12 849 25.07 2.3 36.2 67 -3.2 26.3
17:50 1020 30.12 849 25.07 2.1 35.8 71 -2.6 27.4
17:55 1020 30.12 849 25.07 1.9 35.5 69 -3.1 26.4
18:00 1020 30.12 849 25.07 2 35.6 71 -2.8 27
18:05 1020 30.12 849 25.07 2 35.6 74 -2.1 28.2
18:10 1020 30.12 849 25.07 1.8 35.2 77 -1.9 28.6
18:15 1020 30.12 849 25.07 1.5 34.7 74 -2.6 27.4
18:20 1020 30.12 849 25.07 1.3 34.4 75 -2.6 27.3
18:25 1020 30.12 849 25.07 1.3 34.4 74 -2.8 26.9
18:30 1020 30.12 849 25.07 1.3 34.3 74 -2.9 26.8
18:35 1020 30.12 849 25.07 1.3 34.3 74 -2.9 26.8
18:40 1020 30.12 850 25.1 1.5 34.7 74 -2.6 27.4
18:45 1020 30.12 850 25.1 1.7 35.1 74 -2.4 27.6
18:50 1020 30.12 850 25.1 1.8 35.3 73 -2.6 27.4
18:55 1020 30.12 850 25.1 1.7 35.1 71 -3 26.7
19:00 1020 30.12 850 25.1 1.6 34.8 68 -3.7 25.3
19:05 1021 30.15 850 25.1 1.6 34.9 76 -2.2 28
19:10 1021 30.15 850 25.1 1.2 34.2 75 -2.8 27
19:15 1020 30.12 850 25.1 1.4 34.6 63 -5 23.1
19:20 1020 30.12 850 25.1 2.2 35.9 66 -3.4 25.8
19:25 1021 30.15 850 25.1 2.1 35.8 69 -3 26.6
19:30 1021 30.15 850 25.1 1.9 35.4 66 -3.7 25.3
19:35 1021 30.15 850 25.1 2.3 36.1 70 -2.6 27.3
19:40 1021 30.15 850 25.1 2.3 36.1 71 -2.5 27.6
19:45 1021 30.15 850 25.1 2.3 36.1 69 -2.9 26.8
19:50 1021 30.15 850 25.1 2.5 36.5 72 -2 28.4
19:55 1021 30.15 850 25.1 2.4 36.3 74 -1.8 28.8
20:00 1021 30.15 850 25.1 2.3 36.1 73 -2 28.4
20:05 1021 30.15 850 25.1 2.1 35.8 76 -1.6 29.1
20:10 1021 30.15 850 25.1 1.9 35.4 77 -1.7 28.9
20:15 1021 30.15 850 25.1 2 35.6 77 -1.7 29
20:20 1021 30.15 850 25.1 2.1 35.8 78 -1.3 29.7
20:25 1021 30.15 850 25.1 2.1 35.7 80 -1.1 30.1
20:30 1021 30.15 850 25.1 2 35.6 81 -0.9 30.4
20:35 1021 30.15 850 25.1 1.8 35.3 83 -0.7 30.7
20:40 1021 30.15 850 25.1 1.8 35.2 83 -0.7 30.7
20:45 1021 30.15 850 25.1 1.7 35.1 85 -0.6 31
20:50 1021 30.15 850 25.1 1.6 34.9 86 -0.5 31.1
20:55 1021 30.15 850 25.1 1.5 34.7 87 -0.5 31.2
21:00 1021 30.15 850 25.1 1.6 34.9 86 -0.4 31.2
21:05 1021 30.15 850 25.1 1.8 35.2 86 -0.3 31.4
21:10 1021 30.15 850 25.1 1.8 35.2 86 -0.4 31.3
21:15 1021 30.15 850 25.1 2 35.7 85 -0.3 31.5
21:20 1021 30.15 850 25.1 2.2 35.9 85 -0.1 31.8
21:25 1021 30.15 850 25.1 2.2 35.9 84 -0.2 31.7
21:30 1021 30.15 850 25.1 2.3 36.1 84 -0.2 31.6
21:35 1021 30.15 850 25.1 2.4 36.2 84 -0.1 31.8
21:40 1021 30.15 850 25.1 2.4 36.3 84 -0 32
21:45 1021 30.15 850 25.1 2.2 36 86 0.1 32.1
21:50 1021 30.15 850 25.1 2.3 36.1 84 -0.1 31.8
21:55 1021 30.15 850 25.1 2.2 36 85 -0 32
22:00 1021 30.15 850 25.1 2 35.6 85 -0.2 31.6
22:05 1021 30.15 850 25.1 2 35.6 86 -0.2 31.7
22:10 1021 30.15 850 25.1 1.9 35.4 87 -0.1 31.8
22:15 1021 30.15 850 25.1 1.8 35.2 87 -0.1 31.8
22:20 1021 30.15 850 25.1 1.7 35.1 88 -0.1 31.9
22:25 1021 30.15 850 25.1 1.5 34.8 88 -0.2 31.6
22:30 1021 30.15 850 25.1 1.3 34.4 89 -0.4 31.3
22:35 1021 30.15 850 25.1 1.2 34.1 88 -0.7 30.8
22:40 1021 30.15 850 25.1 1.1 33.9 87 -0.8 30.6
22:45 1021 30.15 850 25.1 1 33.8 88 -0.8 30.5
22:50 1021 30.15 850 25.1 0.8 33.4 89 -0.9 30.5
22:55 1021 30.15 850 25.1 0.7 33.2 90 -0.9 30.4
23:00 1021 30.15 850 25.1 0.5 32.9 86 -1.6 29.1
23:05 1021 30.15 850 25.1 0.6 33 86 -1.6 29.2
23:10 1021 30.15 850 25.1 0.5 32.9 87 -1.4 29.4
23:15 1021 30.15 850 25.1 0.4 32.8 91 -0.9 30.5
23:20 1021 30.15 850 25.1 0.2 32.3 91 -1.1 30.1
23:25 1021 30.15 851 25.13 0.1 32.1 93 -0.9 30.4
23:30 1021 30.15 851 25.13 0.2 32.4 94 -0.6 30.9
23:35 1021 30.15 851 25.13 0.4 32.7 94 -0.5 31.1
23:40 1021 30.15 851 25.13 0.4 32.7 94 -0.5 31.1
23:45 1021 30.15 850 25.1 0.4 32.8 94 -0.4 31.3
23:50 1021 30.15 850 25.1 0.6 33 94 -0.3 31.5
23:55 1021 30.15 850 25.1 0.6 33.2 94 -0.2 31.7
24:00 1021 30.15 850 25.1 0.8 33.5 94 -0 31.9